createdAt,value
2022-09-12T00:00:52.760Z,12.80
2022-09-12T00:03:19.641Z,12.80
2022-09-12T00:05:47.691Z,12.70
2022-09-12T00:08:15.153Z,12.70
2022-09-12T00:10:44.179Z,12.70
2022-09-12T00:13:12.126Z,12.60
2022-09-12T00:15:43.784Z,12.50
2022-09-12T00:18:16.164Z,12.50
2022-09-12T00:20:44.201Z,12.40
2022-09-12T00:23:11.146Z,12.40
2022-09-12T00:25:48.434Z,12.40
2022-09-12T00:28:16.816Z,12.30
2022-09-12T00:30:44.989Z,12.30
2022-09-12T00:33:12.147Z,12.30
2022-09-12T00:35:48.591Z,12.40
2022-09-12T00:38:17.099Z,12.30
2022-09-12T00:40:44.746Z,12.30
2022-09-12T00:43:36.463Z,12.40
2022-09-12T00:46:13.137Z,12.40
2022-09-12T00:48:44.645Z,12.40
2022-09-12T00:51:12.173Z,12.20
2022-09-12T00:53:41.243Z,12.20
2022-09-12T00:56:08.486Z,12.20
2022-09-12T00:58:53.869Z,12.20
2022-09-12T01:01:20.694Z,12.20
2022-09-12T01:03:47.860Z,12.20
2022-09-12T01:06:19.407Z,12.10
2022-09-12T01:08:48.503Z,12.00
2022-09-12T01:11:16.686Z,12.00
2022-09-12T01:13:45.467Z,12.00
2022-09-12T01:16:12.535Z,12.00
2022-09-12T01:19:11.209Z,12.00
2022-09-12T01:21:55.139Z,11.90
2022-09-12T01:24:43.284Z,11.80
2022-09-12T01:27:17.817Z,11.70
2022-09-12T01:29:44.401Z,11.70
2022-09-12T01:32:46.239Z,11.70
2022-09-12T01:35:21.461Z,11.80
2022-09-12T01:37:57.821Z,11.80
2022-09-12T01:40:33.493Z,11.80
2022-09-12T01:43:13.329Z,11.80
2022-09-12T01:46:07.438Z,11.80
2022-09-12T01:48:39.553Z,11.80
2022-09-12T01:51:42.019Z,11.80
2022-09-12T01:54:19.225Z,11.70
2022-09-12T01:56:48.325Z,11.60
2022-09-12T01:59:23.945Z,11.60
2022-09-12T02:02:02.430Z,11.50
2022-09-12T02:04:35.777Z,11.60
2022-09-12T02:07:07.210Z,11.50
2022-09-12T02:09:42.958Z,11.40
2022-09-12T02:12:13.845Z,11.40
2022-09-12T02:14:52.513Z,11.30
2022-09-12T02:17:30.409Z,11.40
2022-09-12T02:20:06.269Z,11.40
2022-09-12T02:22:36.906Z,11.40
2022-09-12T02:25:07.419Z,11.40
2022-09-12T02:27:40.107Z,11.30
2022-09-12T02:30:08.586Z,11.30
2022-09-12T02:32:41.183Z,11.30
2022-09-12T02:35:42.200Z,11.30
2022-09-12T02:38:43.900Z,11.30
2022-09-12T02:41:12.802Z,11.20
2022-09-12T02:43:39.717Z,11.20
2022-09-12T02:46:15.749Z,11.20
2022-09-12T02:48:43.994Z,11.20
2022-09-12T02:51:12.195Z,11.20
2022-09-12T02:53:39.780Z,11.20
2022-09-12T02:56:11.207Z,11.20
2022-09-12T02:58:38.265Z,11.20
2022-09-12T03:01:38.270Z,11.10
2022-09-12T03:04:31.236Z,11.10
2022-09-12T03:07:19.468Z,11.10
2022-09-12T03:10:15.494Z,11.10
2022-09-12T03:12:42.358Z,11.10
2022-09-12T03:15:30.788Z,11.10
2022-09-12T03:18:14.008Z,11.10
2022-09-12T03:21:15.785Z,11.00
2022-09-12T03:24:00.850Z,11.00
2022-09-12T03:27:02.350Z,11.00
2022-09-12T03:29:31.183Z,11.00
2022-09-12T03:31:58.860Z,11.00
2022-09-12T03:34:27.328Z,10.90
2022-09-12T03:36:55.210Z,10.80
2022-09-12T03:39:22.745Z,10.80
2022-09-12T03:41:49.893Z,10.80
2022-09-12T03:44:17.567Z,10.70
2022-09-12T03:46:44.503Z,10.70
2022-09-12T03:49:11.956Z,10.60
2022-09-12T03:51:39.826Z,10.60
2022-09-12T03:54:07.211Z,10.70
2022-09-12T03:56:34.217Z,10.60
2022-09-12T03:59:01.070Z,10.60
2022-09-12T04:01:27.957Z,10.60
2022-09-12T04:03:54.800Z,10.60
2022-09-12T04:06:22.918Z,10.60
2022-09-12T04:08:52.217Z,10.70
2022-09-12T04:11:20.819Z,10.70
2022-09-12T04:13:48.585Z,10.70
2022-09-12T04:16:16.285Z,10.60
2022-09-12T04:18:43.598Z,10.60
2022-09-12T04:21:15.985Z,10.60
2022-09-12T04:23:43.116Z,10.50
2022-09-12T04:26:11.164Z,10.50
2022-09-12T04:28:38.630Z,10.40
2022-09-12T04:31:11.652Z,10.40
2022-09-12T04:33:38.852Z,10.50
2022-09-12T04:36:12.054Z,10.40
2022-09-12T04:38:38.794Z,10.40
2022-09-12T04:41:13.115Z,10.40
2022-09-12T04:43:40.458Z,10.50
2022-09-12T04:46:11.764Z,10.50
2022-09-12T04:48:38.954Z,10.50
2022-09-12T04:51:15.937Z,10.40
2022-09-12T04:53:44.010Z,10.50
2022-09-12T04:56:12.276Z,10.40
2022-09-12T04:58:39.239Z,10.40
2022-09-12T05:01:10.018Z,10.30
2022-09-12T05:03:37.336Z,10.30
2022-09-12T05:06:06.100Z,10.20
2022-09-12T05:08:34.074Z,10.20
2022-09-12T05:11:10.541Z,10.10
2022-09-12T05:13:37.585Z,10.10
2022-09-12T05:16:06.060Z,10.10
2022-09-12T05:18:34.861Z,10.10
2022-09-12T05:21:04.464Z,10.20
2022-09-12T05:23:31.588Z,10.30
2022-09-12T05:25:59.670Z,10.30
2022-09-12T05:28:30.548Z,10.30
2022-09-12T05:31:02.531Z,10.40
2022-09-12T05:33:29.614Z,10.50
2022-09-12T05:35:56.346Z,10.50
2022-09-12T05:38:23.357Z,10.50
2022-09-12T05:40:50.059Z,10.70
2022-09-12T05:43:16.896Z,10.70
2022-09-12T05:45:43.771Z,10.70
2022-09-12T05:48:10.657Z,10.70
2022-09-12T05:50:37.616Z,10.90
2022-09-12T05:53:04.453Z,10.90
2022-09-12T05:55:31.430Z,11.00
2022-09-12T05:57:58.250Z,11.00
2022-09-12T06:00:24.935Z,11.10
2022-09-12T06:02:52.802Z,11.20
2022-09-12T06:05:19.703Z,11.30
2022-09-12T06:07:47.033Z,11.30
2022-09-12T06:10:14.631Z,11.50
2022-09-12T06:12:41.755Z,11.70
2022-09-12T06:15:09.195Z,11.70
2022-09-12T06:17:35.996Z,11.90
2022-09-12T06:20:03.501Z,12.00
2022-09-12T06:22:30.361Z,12.30
2022-09-12T06:24:58.039Z,12.50
2022-09-12T06:27:25.079Z,12.60
2022-09-12T06:29:51.799Z,12.60
2022-09-12T06:32:18.650Z,12.70
2022-09-12T06:34:45.689Z,12.80
2022-09-12T06:37:12.420Z,13.00
2022-09-12T06:39:39.192Z,13.10
2022-09-12T06:42:06.210Z,13.40
2022-09-12T06:44:32.957Z,13.70
2022-09-12T06:46:59.705Z,14.00
2022-09-12T06:49:26.656Z,14.10
2022-09-12T06:51:53.474Z,14.30
2022-09-12T06:54:20.309Z,14.40
2022-09-12T06:56:47.151Z,14.60
2022-09-12T06:59:14.119Z,14.70
2022-09-12T07:01:42.899Z,15.00
2022-09-12T07:04:10.234Z,15.10
2022-09-12T07:06:40.456Z,15.20
2022-09-12T07:09:10.290Z,15.40
2022-09-12T07:11:39.272Z,15.60
2022-09-12T07:14:07.523Z,15.60
2022-09-12T07:16:37.704Z,15.30
2022-09-12T07:19:07.486Z,15.20
2022-09-12T07:21:34.929Z,15.30
2022-09-12T07:24:01.763Z,15.50
2022-09-12T07:26:29.940Z,15.50
2022-09-12T07:29:18.591Z,15.50
2022-09-12T07:31:45.441Z,15.50
2022-09-12T07:34:12.491Z,15.70
2022-09-12T07:36:39.340Z,15.80
2022-09-12T07:39:06.183Z,15.80
2022-09-12T07:41:33.516Z,15.90
2022-09-12T07:44:02.478Z,15.90
2022-09-12T07:46:30.955Z,16.20
2022-09-12T07:48:59.401Z,16.40
2022-09-12T07:51:27.667Z,16.40
2022-09-12T07:53:57.552Z,16.60
2022-09-12T07:56:28.948Z,16.60
2022-09-12T07:58:56.559Z,16.80
2022-09-12T08:01:23.653Z,17.10
2022-09-12T08:03:54.771Z,17.10
2022-09-12T08:06:22.648Z,17.20
2022-09-12T08:08:49.872Z,17.10
2022-09-12T08:11:19.679Z,17.30
2022-09-12T08:13:52.908Z,17.70
2022-09-12T08:16:23.868Z,17.90
2022-09-12T08:18:50.644Z,18.00
2022-09-12T08:21:20.663Z,18.20
2022-09-12T08:23:51.374Z,18.00
2022-09-12T08:26:18.158Z,18.00
2022-09-12T08:28:45.619Z,18.10
2022-09-12T08:31:15.385Z,18.40
2022-09-12T08:33:42.303Z,18.50
2022-09-12T08:36:18.919Z,18.50
2022-09-12T08:38:47.329Z,18.60
2022-09-12T08:41:32.568Z,18.60
2022-09-12T08:44:30.147Z,18.70
2022-09-12T08:47:14.507Z,18.90
2022-09-12T08:50:02.442Z,19.00
2022-09-12T08:52:53.737Z,19.20
2022-09-12T08:55:38.202Z,19.50
2022-09-12T08:58:25.028Z,19.20
2022-09-12T09:01:26.674Z,19.30
2022-09-12T09:04:20.189Z,19.30
2022-09-12T09:06:59.055Z,19.40
2022-09-12T09:10:04.972Z,19.50
2022-09-12T09:12:39.226Z,19.60
2022-09-12T09:15:12.037Z,19.90
2022-09-12T09:17:49.223Z,19.90
2022-09-12T09:20:19.482Z,20.10
2022-09-12T09:23:15.049Z,20.20
2022-09-12T09:26:20.578Z,20.40
2022-09-12T09:28:55.207Z,20.50
2022-09-12T09:31:25.002Z,20.70
2022-09-12T09:33:55.467Z,20.80
2022-09-12T09:36:32.562Z,20.80
2022-09-12T09:39:48.284Z,21.00
2022-09-12T09:42:26.449Z,20.90
2022-09-12T09:44:59.432Z,21.20
2022-09-12T09:47:33.126Z,21.30
2022-09-12T09:50:01.236Z,21.40
2022-09-12T09:52:30.611Z,21.50
2022-09-12T09:55:01.935Z,21.40
2022-09-12T09:57:54.918Z,21.60
2022-09-12T10:00:56.713Z,21.80
2022-09-12T10:03:33.629Z,21.80
2022-09-12T10:06:10.286Z,21.70
2022-09-12T10:08:42.833Z,21.90
2022-09-12T10:11:22.762Z,22.20
2022-09-12T10:14:02.290Z,22.30
2022-09-12T10:16:34.683Z,22.40
2022-09-12T10:19:03.911Z,22.20
2022-09-12T10:21:46.055Z,22.30
2022-09-12T10:24:38.227Z,22.40
2022-09-12T10:27:12.878Z,22.50
2022-09-12T10:29:45.349Z,22.50
2022-09-12T10:32:29.969Z,22.50
2022-09-12T10:35:16.989Z,22.60
2022-09-12T10:37:54.240Z,22.80
2022-09-12T10:43:45.339Z,23.10
2022-09-12T10:46:15.189Z,23.20
2022-09-12T10:48:44.964Z,23.40
2022-09-12T10:51:27.720Z,23.60
2022-09-12T10:54:03.476Z,23.70
2022-09-12T10:57:00.207Z,23.50
2022-09-12T11:00:00.106Z,23.70
2022-09-12T11:03:02.870Z,23.30
2022-09-12T11:05:55.859Z,23.60
2022-09-12T11:08:59.839Z,23.60
2022-09-12T11:12:06.010Z,23.70
2022-09-12T11:14:38.371Z,23.90
2022-09-12T11:17:33.369Z,23.90
2022-09-12T11:20:03.241Z,23.90
2022-09-12T11:22:41.866Z,23.50
2022-09-12T11:25:46.301Z,23.70
2022-09-12T11:28:29.893Z,23.70
2022-09-12T11:31:08.568Z,23.90
2022-09-12T11:33:45.348Z,23.90
2022-09-12T11:36:20.248Z,24.10
2022-09-12T11:39:03.202Z,23.70
2022-09-12T11:41:41.017Z,23.90
2022-09-12T11:44:46.039Z,24.10
2022-09-12T11:47:13.904Z,24.10
2022-09-12T11:49:46.287Z,24.30
2022-09-12T11:52:17.270Z,24.30
2022-09-12T11:55:22.407Z,24.10
2022-09-12T11:57:57.860Z,24.30
2022-09-12T12:00:36.337Z,24.40
2022-09-12T12:03:33.269Z,24.30
2022-09-12T12:06:07.596Z,24.60
2022-09-12T12:08:41.459Z,24.60
2022-09-12T12:11:09.345Z,24.70
2022-09-12T12:13:49.807Z,24.40
2022-09-12T12:16:49.723Z,24.60
2022-09-12T12:19:16.465Z,24.80
2022-09-12T12:21:49.512Z,24.60
2022-09-12T12:24:24.996Z,24.40
2022-09-12T12:27:06.391Z,24.50
2022-09-12T12:29:43.533Z,24.70
2022-09-12T12:32:10.717Z,24.90
2022-09-12T12:34:42.475Z,25.00
2022-09-12T12:37:21.498Z,24.90
2022-09-12T12:39:48.434Z,25.00
2022-09-12T12:42:33.506Z,25.10
2022-09-12T12:45:07.009Z,24.80
2022-09-12T12:47:44.452Z,25.00
2022-09-12T12:50:13.505Z,25.00
2022-09-12T12:52:54.870Z,24.90
2022-09-12T12:55:32.072Z,25.00
2022-09-12T12:58:04.070Z,25.10
2022-09-12T13:00:39.818Z,24.90
2022-09-12T13:03:06.892Z,24.60
2022-09-12T13:05:58.181Z,24.40
2022-09-12T13:08:33.601Z,24.80
2022-09-12T13:11:10.677Z,24.70
2022-09-12T13:13:46.921Z,25.20
2022-09-12T13:16:33.224Z,25.40
2022-09-12T13:19:18.127Z,25.20
2022-09-12T13:22:01.000Z,25.30
2022-09-12T13:24:28.225Z,25.50
2022-09-12T13:26:55.251Z,25.50
2022-09-12T13:29:24.447Z,25.50
2022-09-12T13:32:02.916Z,25.40
2022-09-12T13:34:50.228Z,25.40
2022-09-12T13:37:45.972Z,25.20
2022-09-12T13:40:57.255Z,25.40
2022-09-12T13:43:40.032Z,25.20
2022-09-12T13:46:09.769Z,24.80
2022-09-12T13:48:36.984Z,24.80
2022-09-12T13:51:05.140Z,25.10
2022-09-12T13:53:46.570Z,25.10
2022-09-12T13:56:18.110Z,25.00
2022-09-12T13:58:56.735Z,25.00
2022-09-12T14:01:25.707Z,24.60
2022-09-12T14:03:58.137Z,24.70
2022-09-12T14:06:26.069Z,24.90
2022-09-12T14:08:53.517Z,24.50
2022-09-12T14:11:28.504Z,24.50
2022-09-12T14:13:56.223Z,24.30
2022-09-12T14:16:24.444Z,24.10
2022-09-12T14:18:51.761Z,24.10
2022-09-12T14:21:35.737Z,24.20
2022-09-12T14:24:06.334Z,24.10
2022-09-12T14:26:38.031Z,24.20
2022-09-12T14:29:09.230Z,24.10
2022-09-12T14:31:38.144Z,23.90
2022-09-12T14:34:16.928Z,24.00
2022-09-12T14:36:47.969Z,23.90
2022-09-12T14:39:32.425Z,23.70
2022-09-12T14:42:11.973Z,23.70
2022-09-12T14:44:39.367Z,23.50
2022-09-12T14:47:15.490Z,23.60
2022-09-12T14:49:42.820Z,23.60
2022-09-12T14:52:27.526Z,23.70
2022-09-12T14:54:59.546Z,23.70
2022-09-12T14:57:35.967Z,23.80
2022-09-12T15:00:29.193Z,23.60
2022-09-12T15:03:16.061Z,23.30
2022-09-12T15:05:50.515Z,23.20
2022-09-12T15:08:17.362Z,23.00
2022-09-12T15:10:44.144Z,23.10
2022-09-12T15:13:10.989Z,23.10
2022-09-12T15:15:39.239Z,23.10
2022-09-12T15:18:06.917Z,23.20
2022-09-12T15:20:36.270Z,23.00
2022-09-12T15:23:03.317Z,23.10
2022-09-12T15:25:30.030Z,23.00
2022-09-12T15:27:56.849Z,23.20
2022-09-12T15:30:23.634Z,23.10
2022-09-12T15:32:50.575Z,23.20
2022-09-12T15:35:21.686Z,23.10
2022-09-12T15:37:50.012Z,23.10
2022-09-12T15:40:17.547Z,23.00
2022-09-12T15:42:44.294Z,23.10
2022-09-12T15:45:23.875Z,23.20
2022-09-12T15:47:50.819Z,23.10
2022-09-12T15:50:17.693Z,23.10
2022-09-12T15:52:44.604Z,23.00
2022-09-12T15:55:18.403Z,23.00
2022-09-12T15:57:45.354Z,23.00
2022-09-12T16:00:13.843Z,23.20
2022-09-12T16:02:40.885Z,23.10
2022-09-12T16:05:13.817Z,22.90
2022-09-12T16:07:40.527Z,23.00
2022-09-12T16:10:08.114Z,22.90
2022-09-12T16:12:34.908Z,22.80
2022-09-12T16:15:01.653Z,22.80
2022-09-12T16:17:28.436Z,22.90
2022-09-12T16:19:55.255Z,22.70
2022-09-12T16:22:21.956Z,22.60
2022-09-12T16:24:48.778Z,22.50
2022-09-12T16:27:15.742Z,22.50
2022-09-12T16:29:42.479Z,22.60
2022-09-12T16:32:09.326Z,22.40
2022-09-12T16:34:36.071Z,22.20
2022-09-12T16:37:02.882Z,22.30
2022-09-12T16:39:29.727Z,22.10
2022-09-12T16:41:56.606Z,22.00
2022-09-12T16:44:23.434Z,21.90
2022-09-12T16:46:50.338Z,21.80
2022-09-12T16:49:17.432Z,21.70
2022-09-12T16:51:44.377Z,21.60
2022-09-12T16:54:11.342Z,21.70
2022-09-12T16:56:38.191Z,21.60
2022-09-12T16:59:05.000Z,21.40
2022-09-12T17:01:32.201Z,21.30
2022-09-12T17:03:59.394Z,21.30
2022-09-12T17:06:26.821Z,21.10
2022-09-12T17:08:56.015Z,21.00
2022-09-12T17:11:25.865Z,20.90
2022-09-12T17:14:10.675Z,20.70
2022-09-12T17:16:47.997Z,20.60
2022-09-12T17:19:21.169Z,20.50
2022-09-12T17:21:48.065Z,20.40
2022-09-12T17:24:16.121Z,20.30
2022-09-12T17:26:43.567Z,20.20
2022-09-12T17:29:15.396Z,20.10
2022-09-12T17:31:43.601Z,20.00
2022-09-12T17:34:10.845Z,19.80
2022-09-12T17:36:38.103Z,19.80
2022-09-12T17:39:04.951Z,19.70
2022-09-12T17:41:31.968Z,19.60
2022-09-12T17:44:04.790Z,19.50
2022-09-12T17:46:41.335Z,19.30
2022-09-12T17:49:12.297Z,19.30
2022-09-12T17:51:40.545Z,19.20
2022-09-12T17:54:12.928Z,19.00
2022-09-12T17:56:39.990Z,18.90
2022-09-12T17:59:08.897Z,18.90
2022-09-12T18:01:35.736Z,18.70
2022-09-12T18:04:02.812Z,18.70
2022-09-12T18:06:31.335Z,18.60
2022-09-12T18:09:06.445Z,18.50
2022-09-12T18:11:33.508Z,18.40
2022-09-12T18:14:00.970Z,18.30
2022-09-12T18:16:27.835Z,18.20
2022-09-12T18:18:55.185Z,18.10
2022-09-12T18:21:22.031Z,18.00
2022-09-12T18:23:48.945Z,18.00
2022-09-12T18:26:15.756Z,17.80
2022-09-12T18:28:44.167Z,17.70
2022-09-12T18:31:20.364Z,17.60
2022-09-12T18:33:48.017Z,17.60
2022-09-12T18:36:15.756Z,17.60
2022-09-12T18:38:43.526Z,17.50
2022-09-12T18:41:21.971Z,17.50
2022-09-12T18:43:49.653Z,17.50
2022-09-12T18:46:19.244Z,17.40
2022-09-12T18:48:46.725Z,17.40
2022-09-12T18:51:24.991Z,17.30
2022-09-12T18:53:57.151Z,17.30
2022-09-12T18:56:26.323Z,17.20
2022-09-12T18:58:55.666Z,17.20
2022-09-12T19:01:27.883Z,17.10
2022-09-12T19:03:55.345Z,17.10
2022-09-12T19:06:25.663Z,17.00
2022-09-12T19:08:53.330Z,17.00
2022-09-12T19:11:20.965Z,16.90
2022-09-12T19:13:50.166Z,16.90
2022-09-12T19:16:20.235Z,16.90
2022-09-12T19:18:47.163Z,16.80
2022-09-12T19:21:38.406Z,16.80
2022-09-12T19:24:07.804Z,16.70
2022-09-12T19:26:34.713Z,16.70
2022-09-12T19:29:01.746Z,16.60
2022-09-12T19:31:29.520Z,16.60
2022-09-12T19:34:00.763Z,16.50
2022-09-12T19:36:44.405Z,16.40
2022-09-12T19:39:11.959Z,16.40
2022-09-12T19:41:38.795Z,16.40
2022-09-12T19:44:05.535Z,16.30
2022-09-12T19:46:32.506Z,16.30
2022-09-12T19:48:59.362Z,16.20
2022-09-12T19:51:26.450Z,16.10
2022-09-12T19:53:53.823Z,16.10
2022-09-12T19:56:21.048Z,16.00
2022-09-12T19:58:53.453Z,16.00
2022-09-12T20:01:26.264Z,16.00
2022-09-12T20:03:52.958Z,15.90
2022-09-12T20:06:20.015Z,15.90
2022-09-12T20:08:46.755Z,15.80
2022-09-12T20:11:19.756Z,15.80
2022-09-12T20:13:47.083Z,15.70
2022-09-12T20:16:21.425Z,15.60
2022-09-12T20:18:56.874Z,15.60
2022-09-12T20:21:26.051Z,15.70
2022-09-12T20:23:52.819Z,15.60
2022-09-12T20:26:19.635Z,15.60
2022-09-12T20:28:46.417Z,15.50
2022-09-12T20:31:15.258Z,15.50
2022-09-12T20:33:42.310Z,15.50
2022-09-12T20:36:11.977Z,15.50
2022-09-12T20:38:38.995Z,15.40
2022-09-12T20:41:08.061Z,15.40
2022-09-12T20:43:34.787Z,15.30
2022-09-12T20:46:06.068Z,15.20
2022-09-12T20:48:32.878Z,15.20
2022-09-12T20:50:59.871Z,15.20
2022-09-12T20:53:30.575Z,15.20
2022-09-12T20:55:59.742Z,15.20
2022-09-12T20:58:26.592Z,15.10
2022-09-12T21:00:53.529Z,15.10
2022-09-12T21:03:20.383Z,15.00
2022-09-12T21:05:47.428Z,15.00
2022-09-12T21:08:14.879Z,15.00
2022-09-12T21:10:42.921Z,14.90
2022-09-12T21:13:11.336Z,15.00
2022-09-12T21:15:38.919Z,14.90
2022-09-12T21:18:06.249Z,14.90
2022-09-12T21:20:33.399Z,14.90
2022-09-12T21:23:00.342Z,14.90
2022-09-12T21:25:27.143Z,14.80
2022-09-12T21:27:54.049Z,14.70
2022-09-12T21:30:21.056Z,14.80
2022-09-12T21:32:47.894Z,14.80
2022-09-12T21:35:14.843Z,14.70
2022-09-12T21:37:41.682Z,14.70
2022-09-12T21:40:08.908Z,14.70
2022-09-12T21:42:35.802Z,14.70
2022-09-12T21:45:02.630Z,14.60
2022-09-12T21:47:29.463Z,14.50
2022-09-12T21:49:56.231Z,14.50
2022-09-12T21:52:23.063Z,14.40
2022-09-12T21:54:49.896Z,14.40
2022-09-12T21:57:16.636Z,14.40
2022-09-12T21:59:43.412Z,14.40
2022-09-12T22:02:10.318Z,14.40
2022-09-12T22:04:37.148Z,14.40
2022-09-12T22:07:03.910Z,14.40
2022-09-12T22:09:30.723Z,14.40
2022-09-12T22:11:57.499Z,14.40
2022-09-12T22:14:24.406Z,14.30
2022-09-12T22:16:51.215Z,14.30
2022-09-12T22:19:18.499Z,14.30
2022-09-12T22:21:45.339Z,14.30
2022-09-12T22:24:12.284Z,14.30
2022-09-12T22:26:43.835Z,14.40
2022-09-12T22:29:11.444Z,14.30
2022-09-12T22:31:38.486Z,14.30
2022-09-12T22:34:05.710Z,14.30
2022-09-12T22:36:34.950Z,14.20
2022-09-12T22:39:05.433Z,14.20
2022-09-12T22:41:32.667Z,14.10
2022-09-12T22:43:59.536Z,14.10
2022-09-12T22:46:26.530Z,14.00
2022-09-12T22:48:53.298Z,14.10
2022-09-12T22:51:19.962Z,14.10
2022-09-12T22:53:46.896Z,14.00
2022-09-12T22:56:13.930Z,14.00
2022-09-12T22:58:40.665Z,14.00
2022-09-12T23:01:08.451Z,13.80
2022-09-12T23:03:35.457Z,13.70
2022-09-12T23:06:02.630Z,13.60
2022-09-12T23:08:29.839Z,13.70
2022-09-12T23:11:18.568Z,13.60
2022-09-12T23:13:47.337Z,13.60
2022-09-12T23:16:19.118Z,13.70
2022-09-12T23:18:46.435Z,13.70
2022-09-12T23:21:15.733Z,13.60
2022-09-12T23:23:42.580Z,13.60
2022-09-12T23:26:09.422Z,13.50
2022-09-12T23:28:37.162Z,13.50
2022-09-12T23:31:04.470Z,13.50
2022-09-12T23:33:32.188Z,13.50
2022-09-12T23:36:07.448Z,13.50
2022-09-12T23:38:35.721Z,13.40
2022-09-12T23:41:03.667Z,13.30
2022-09-12T23:43:31.161Z,13.30
2022-09-12T23:45:58.486Z,13.30
2022-09-12T23:48:25.626Z,13.30
2022-09-12T23:50:52.819Z,13.20
2022-09-12T23:53:20.544Z,13.20
2022-09-12T23:55:48.213Z,13.20
2022-09-12T23:58:15.154Z,13.20
